createdAt,value
2022-08-31T00:02:58.303Z,0
2022-08-31T00:09:18.349Z,0
2022-08-31T00:15:41.320Z,0
2022-08-31T00:22:01.326Z,0
2022-08-31T00:28:24.319Z,0
2022-08-31T00:34:44.308Z,0
2022-08-31T00:41:07.368Z,0
2022-08-31T00:47:27.300Z,0
2022-08-31T00:53:50.706Z,0
2022-08-31T01:00:10.321Z,0
2022-08-31T01:06:33.307Z,0
2022-08-31T01:12:53.366Z,0
2022-08-31T01:19:16.323Z,0
2022-08-31T01:25:36.307Z,0
2022-08-31T01:31:59.378Z,0
2022-08-31T01:38:19.309Z,0
2022-08-31T01:44:42.344Z,0
2022-08-31T01:51:02.312Z,0
2022-08-31T01:57:33.892Z,0
2022-08-31T02:03:45.336Z,0
2022-08-31T02:10:08.307Z,0
2022-08-31T02:16:28.441Z,0
2022-08-31T02:22:51.302Z,0
2022-08-31T02:29:11.306Z,0
2022-08-31T02:35:34.356Z,0
2022-08-31T02:41:54.312Z,0
2022-08-31T02:48:17.363Z,0
2022-08-31T02:54:37.318Z,0
2022-08-31T03:01:00.379Z,0
2022-08-31T03:07:20.367Z,0
2022-08-31T03:13:43.326Z,0
2022-08-31T03:20:03.384Z,0
2022-08-31T03:26:26.337Z,0
2022-08-31T03:32:46.308Z,0
2022-08-31T03:39:09.361Z,0
2022-08-31T03:45:29.307Z,0
2022-08-31T03:51:52.356Z,0
2022-08-31T03:58:12.344Z,0
2022-08-31T04:21:19.266Z,1
2022-08-31T04:27:42.316Z,3
2022-08-31T04:34:02.371Z,6
2022-08-31T04:40:25.679Z,13
2022-08-31T04:46:45.304Z,23
2022-08-31T04:53:08.325Z,33
2022-08-31T04:59:28.337Z,50
2022-08-31T05:05:51.310Z,71
2022-08-31T05:12:11.360Z,103
2022-08-31T05:18:34.313Z,151
2022-08-31T05:24:54.352Z,189
2022-08-31T05:31:17.364Z,199
2022-08-31T05:37:37.328Z,234
2022-08-31T05:44:00.354Z,277
2022-08-31T05:50:20.308Z,359
2022-08-31T05:56:43.360Z,439
2022-08-31T06:03:03.328Z,534
2022-08-31T06:09:26.314Z,651
2022-08-31T06:15:46.459Z,788
2022-08-31T06:22:09.306Z,892
2022-08-31T06:28:29.370Z,927
2022-08-31T06:34:52.342Z,1062
2022-08-31T06:41:12.315Z,1183
2022-08-31T06:47:35.357Z,1364
2022-08-31T06:53:55.323Z,1566
2022-08-31T07:00:18.376Z,1923
2022-08-31T07:06:38.337Z,2283
2022-08-31T07:13:01.324Z,2499
2022-08-31T07:19:21.368Z,2633
2022-08-31T07:25:44.318Z,2808
2022-08-31T07:32:04.368Z,2986
2022-08-31T07:38:27.323Z,3360
2022-08-31T07:44:51.956Z,3737
2022-08-31T07:51:13.454Z,3814
2022-08-31T07:57:30.315Z,3884
2022-08-31T08:03:53.319Z,3940
2022-08-31T08:10:13.339Z,3906
2022-08-31T08:16:36.372Z,3887
2022-08-31T08:22:56.351Z,3323
2022-08-31T08:29:19.315Z,2999
2022-08-31T08:35:39.354Z,3033
2022-08-31T08:42:02.335Z,3024
2022-08-31T08:48:22.311Z,2813
2022-08-31T08:54:45.339Z,2824
2022-08-31T09:01:05.340Z,2890
2022-08-31T09:07:28.378Z,2849
2022-08-31T09:13:48.321Z,2967
2022-08-31T09:20:11.316Z,3210
2022-08-31T09:26:31.330Z,3387
2022-08-31T09:32:54.320Z,3162
2022-08-31T09:39:14.369Z,2857
2022-08-31T09:45:42.024Z,2502
2022-08-31T09:51:57.310Z,2235
2022-08-31T09:58:20.363Z,2237
2022-08-31T10:21:25.867Z,4265
2022-08-31T10:27:45.327Z,4484
2022-08-31T10:34:08.371Z,4589
2022-08-31T10:40:28.388Z,3412
2022-08-31T10:46:51.318Z,3601
2022-08-31T10:53:11.329Z,3868
2022-08-31T10:59:34.319Z,4045
2022-08-31T11:05:54.352Z,4189
2022-08-31T11:12:17.327Z,4960
2022-08-31T11:18:37.325Z,4873
2022-08-31T11:25:00.535Z,5362
2022-08-31T11:31:20.578Z,4517
2022-08-31T11:37:43.355Z,4238
2022-08-31T11:44:03.326Z,4360
2022-08-31T11:50:26.378Z,5220
2022-08-31T11:56:46.383Z,4782
2022-08-31T12:03:09.312Z,4580
2022-08-31T12:09:29.417Z,5280
2022-08-31T12:15:52.335Z,5577
2022-08-31T12:22:12.565Z,4799
2022-08-31T12:28:35.321Z,6917
2022-08-31T12:34:56.556Z,6209
2022-08-31T12:41:22.187Z,6698
2022-08-31T12:47:39.322Z,6858
2022-08-31T12:54:02.339Z,6640
2022-08-31T13:00:22.312Z,3123
2022-08-31T13:06:45.365Z,2554
2022-08-31T13:13:05.315Z,2890
2022-08-31T13:19:28.377Z,6695
2022-08-31T13:25:51.586Z,7148
2022-08-31T13:32:11.366Z,8155
2022-08-31T13:38:31.342Z,4376
2022-08-31T13:44:54.343Z,3632
2022-08-31T13:51:14.327Z,6266
2022-08-31T13:57:37.351Z,6478
2022-08-31T14:03:57.529Z,6451
2022-08-31T14:10:20.319Z,6411
2022-08-31T14:16:43.486Z,5804
2022-08-31T14:23:03.321Z,2717
2022-08-31T14:29:23.414Z,2681
2022-08-31T14:35:47.325Z,2612
2022-08-31T14:42:07.317Z,2492
2022-08-31T14:48:30.347Z,2166
2022-08-31T14:54:50.318Z,1361
2022-08-31T15:01:13.397Z,1711
2022-08-31T15:07:33.323Z,1916
2022-08-31T15:13:56.357Z,1951
2022-08-31T15:20:16.335Z,2174
2022-08-31T15:26:39.404Z,2055
2022-08-31T15:32:59.446Z,2134
2022-08-31T15:39:22.488Z,2382
2022-08-31T15:55:48.078Z,2288
2022-08-31T16:02:10.991Z,2227
2022-08-31T16:08:31.454Z,1892
2022-08-31T16:14:54.488Z,1882
2022-08-31T16:21:14.445Z,1924
2022-08-31T16:27:37.445Z,1880
2022-08-31T16:33:57.456Z,1977
2022-08-31T16:40:20.493Z,1835
2022-08-31T16:46:41.503Z,1850
2022-08-31T16:53:03.447Z,1842
2022-08-31T16:59:23.465Z,1625
2022-08-31T17:05:46.475Z,1528
2022-08-31T17:12:06.452Z,1044
2022-08-31T17:18:29.486Z,702
2022-08-31T17:24:49.448Z,590
2022-08-31T17:31:12.505Z,583
2022-08-31T17:37:32.938Z,506
2022-08-31T17:43:55.444Z,369
2022-08-31T17:50:15.482Z,221
2022-08-31T17:56:38.446Z,164
2022-08-31T18:02:58.446Z,99
2022-08-31T18:09:21.483Z,54
2022-08-31T18:15:41.442Z,35
2022-08-31T18:22:04.499Z,21
2022-08-31T18:28:24.438Z,12
2022-08-31T18:34:48.414Z,6
2022-08-31T18:41:08.485Z,2
2022-08-31T18:47:31.444Z,0
2022-08-31T18:53:51.487Z,0
2022-08-31T19:00:14.443Z,0
2022-08-31T19:06:34.444Z,0
2022-08-31T19:12:58.331Z,0
2022-08-31T19:19:18.458Z,0
2022-08-31T19:25:41.473Z,0
2022-08-31T19:32:01.550Z,0
2022-08-31T19:38:25.477Z,0
2022-08-31T19:45:22.291Z,0
2022-08-31T19:51:11.481Z,0
2022-08-31T19:57:31.443Z,0
2022-08-31T20:03:54.445Z,0
2022-08-31T20:10:14.498Z,0
2022-08-31T20:16:37.481Z,0
2022-08-31T20:22:57.493Z,0
2022-08-31T20:29:20.455Z,0
2022-08-31T20:35:40.437Z,0
2022-08-31T20:42:03.585Z,0
2022-08-31T20:48:23.306Z,0
2022-08-31T20:54:46.371Z,0
2022-08-31T21:01:06.316Z,0
2022-08-31T21:07:29.321Z,0
2022-08-31T21:13:49.336Z,0
2022-08-31T21:20:12.318Z,0
2022-08-31T21:26:34.588Z,0
2022-08-31T21:32:55.325Z,0
2022-08-31T21:49:21.219Z,0
2022-08-31T21:55:41.295Z,0
2022-08-31T22:21:15.311Z,0
2022-08-31T22:27:35.341Z,0
2022-08-31T22:33:58.322Z,0
2022-08-31T22:40:18.419Z,0
2022-08-31T22:46:41.407Z,0
2022-08-31T22:53:01.309Z,0
2022-08-31T22:59:24.359Z,0
2022-08-31T23:05:44.304Z,0
2022-08-31T23:12:07.357Z,0
2022-08-31T23:18:27.307Z,0
2022-08-31T23:24:50.337Z,0
2022-08-31T23:31:10.358Z,0
2022-08-31T23:37:33.319Z,0
2022-08-31T23:43:53.380Z,0
2022-08-31T23:50:16.354Z,0
2022-08-31T23:56:36.391Z,0
